createdAt,value
2023-04-25T00:00:24.462Z,4.57
2023-04-25T00:02:52.572Z,4.48
2023-04-25T00:05:20.933Z,4.55
2023-04-25T00:07:49.064Z,4.54
2023-04-25T00:10:17.368Z,4.48
2023-04-25T00:12:46.641Z,4.46
2023-04-25T00:15:14.528Z,4.44
2023-04-25T00:17:42.693Z,4.31
2023-04-25T00:20:11.976Z,4.39
2023-04-25T00:22:39.837Z,4.35
2023-04-25T00:25:08.679Z,4.33
2023-04-25T00:27:36.565Z,4.32
2023-04-25T00:30:06.866Z,4.30
2023-04-25T00:32:34.977Z,4.31
2023-04-25T00:35:04.207Z,4.30
2023-04-25T00:37:32.125Z,3.39
2023-04-25T00:40:00.805Z,4.27
2023-04-25T00:42:29.188Z,4.24
2023-04-25T00:44:57.668Z,4.00
2023-04-25T00:47:27.848Z,4.24
2023-04-25T00:49:55.709Z,4.24
2023-04-25T00:52:23.789Z,4.03
2023-04-25T00:54:51.885Z,4.20
2023-04-25T00:57:19.856Z,4.21
2023-04-25T00:59:48.373Z,4.21
2023-04-25T01:02:16.566Z,4.21
2023-04-25T01:04:46.688Z,4.18
2023-04-25T01:07:14.541Z,4.16
2023-04-25T01:09:43.355Z,3.37
2023-04-25T01:12:11.343Z,4.16
2023-04-25T01:14:39.254Z,4.17
2023-04-25T01:17:08.937Z,4.16
2023-04-25T01:19:37.191Z,4.18
2023-04-25T01:22:07.172Z,4.15
2023-04-25T01:24:35.449Z,4.13
2023-04-25T01:27:04.546Z,3.73
2023-04-25T01:29:35.150Z,3.65
2023-04-25T01:32:04.430Z,3.93
2023-04-25T01:34:33.894Z,4.01
2023-04-25T01:37:02.766Z,3.99
2023-04-25T01:39:32.169Z,3.94
2023-04-25T01:42:01.518Z,3.91
2023-04-25T01:44:29.908Z,3.80
2023-04-25T01:46:57.892Z,3.93
2023-04-25T01:49:25.953Z,3.90
2023-04-25T01:51:53.944Z,3.75
2023-04-25T01:54:22.129Z,3.87
2023-04-25T01:56:53.904Z,3.76
2023-04-25T01:59:22.873Z,3.85
2023-04-25T02:01:50.997Z,3.83
2023-04-25T02:04:19.288Z,3.81
2023-04-25T02:06:47.465Z,3.77
2023-04-25T02:09:15.471Z,3.77
2023-04-25T02:11:43.365Z,3.74
2023-04-25T02:14:12.549Z,3.71
2023-04-25T02:16:40.876Z,3.33
2023-04-25T02:19:09.086Z,3.71
2023-04-25T02:21:37.654Z,3.71
2023-04-25T02:24:06.332Z,3.67
2023-04-25T02:26:34.225Z,3.72
2023-04-25T02:29:02.262Z,3.72
2023-04-25T02:31:31.638Z,3.73
2023-04-25T02:33:59.667Z,3.71
2023-04-25T02:36:27.718Z,3.71
2023-04-25T02:38:55.615Z,3.71
2023-04-25T02:41:23.440Z,3.67
2023-04-25T02:43:51.615Z,3.65
2023-04-25T02:46:32.066Z,3.68
2023-04-25T02:49:07.803Z,3.73
2023-04-25T02:51:35.853Z,3.59
2023-04-25T02:54:03.673Z,3.73
2023-04-25T02:56:31.656Z,3.73
2023-04-25T02:58:59.565Z,3.71
2023-04-25T03:01:27.627Z,3.57
2023-04-25T03:03:55.866Z,3.63
2023-04-25T03:06:25.246Z,3.61
2023-04-25T03:08:53.070Z,3.58
2023-04-25T03:11:21.983Z,3.58
2023-04-25T03:13:50.179Z,3.57
2023-04-25T03:16:18.160Z,2.70
2023-04-25T03:18:47.337Z,3.57
2023-04-25T03:21:15.392Z,3.58
2023-04-25T03:23:44.829Z,3.63
2023-04-25T03:26:12.979Z,3.62
2023-04-25T03:28:41.225Z,3.59
2023-04-25T03:31:09.201Z,3.55
2023-04-25T03:33:47.908Z,3.53
2023-04-25T03:36:15.853Z,3.51
2023-04-25T03:38:45.288Z,3.26
2023-04-25T03:41:13.345Z,3.54
2023-04-25T03:43:41.176Z,3.53
2023-04-25T03:46:09.263Z,3.55
2023-04-25T03:48:37.464Z,3.58
2023-04-25T03:51:05.694Z,3.19
2023-04-25T03:53:33.619Z,3.09
2023-04-25T03:56:04.212Z,3.63
2023-04-25T03:58:32.054Z,3.63
2023-04-25T04:00:59.989Z,3.66
2023-04-25T04:03:28.070Z,3.70
2023-04-25T04:05:56.198Z,3.59
2023-04-25T04:08:24.142Z,3.73
2023-04-25T04:10:52.088Z,3.67
2023-04-25T04:13:21.439Z,3.67
2023-04-25T04:15:49.463Z,3.83
2023-04-25T04:18:17.544Z,3.70
2023-04-25T04:20:45.467Z,3.88
2023-04-25T04:23:14.462Z,3.77
2023-04-25T04:25:42.990Z,3.95
2023-04-25T04:28:12.103Z,3.96
2023-04-25T04:30:42.294Z,3.96
2023-04-25T04:33:10.620Z,3.99
2023-04-25T04:35:38.530Z,3.97
2023-04-25T04:38:06.616Z,3.96
2023-04-25T04:40:34.764Z,4.00
2023-04-25T04:43:03.154Z,4.04
2023-04-25T04:45:31.207Z,3.84
2023-04-25T04:48:00.672Z,4.10
2023-04-25T04:50:28.753Z,4.08
2023-04-25T04:52:56.682Z,3.97
2023-04-25T04:55:24.646Z,3.99
2023-04-25T04:57:52.479Z,4.12
2023-04-25T05:00:21.860Z,4.17
2023-04-25T05:02:50.198Z,3.94
2023-04-25T05:05:19.647Z,4.02
2023-04-25T05:07:47.545Z,4.01
2023-04-25T05:10:15.642Z,3.89
2023-04-25T05:12:43.471Z,4.23
2023-04-25T05:15:14.469Z,4.21
2023-04-25T05:17:42.459Z,4.29
2023-04-25T05:20:11.340Z,3.92
2023-04-25T05:22:42.664Z,3.82
2023-04-25T05:25:11.599Z,4.37
2023-04-25T05:27:39.561Z,4.39
2023-04-25T05:30:09.065Z,4.38
2023-04-25T05:32:37.126Z,4.38
2023-04-25T05:35:07.832Z,3.76
2023-04-25T05:37:35.909Z,4.03
2023-04-25T05:40:07.929Z,4.45
2023-04-25T05:42:35.849Z,4.49
2023-04-25T05:45:03.939Z,4.30
2023-04-25T05:47:31.913Z,4.59
2023-04-25T05:49:59.893Z,4.64
2023-04-25T05:52:27.936Z,4.70
2023-04-25T05:54:56.153Z,4.67
2023-04-25T05:57:27.121Z,4.71
2023-04-25T05:59:55.569Z,4.75
2023-04-25T06:02:23.881Z,4.82
2023-04-25T06:04:52.585Z,4.86
2023-04-25T06:07:22.098Z,4.89
2023-04-25T06:09:50.417Z,4.94
2023-04-25T06:12:18.290Z,5.00
2023-04-25T06:14:47.749Z,5.05
2023-04-25T06:17:15.691Z,5.08
2023-04-25T06:19:43.568Z,5.03
2023-04-25T06:22:11.593Z,5.15
2023-04-25T06:24:39.554Z,5.14
2023-04-25T06:27:07.458Z,5.11
2023-04-25T06:29:35.476Z,4.95
2023-04-25T06:32:05.170Z,4.53
2023-04-25T06:34:33.107Z,4.74
2023-04-25T06:37:01.008Z,4.92
2023-04-25T06:39:28.942Z,4.94
2023-04-25T06:41:56.787Z,4.95
2023-04-25T06:44:27.185Z,4.94
2023-04-25T06:46:55.188Z,4.98
2023-04-25T06:49:24.432Z,5.08
2023-04-25T06:51:52.344Z,5.16
2023-04-25T06:54:20.312Z,5.22
2023-04-25T06:56:48.192Z,5.25
2023-04-25T06:59:16.111Z,5.30
2023-04-25T07:01:43.996Z,5.38
2023-04-25T07:04:12.031Z,5.43
2023-04-25T07:06:43.638Z,5.46
2023-04-25T07:09:12.078Z,5.47
2023-04-25T07:11:39.971Z,5.47
2023-04-25T07:14:07.996Z,5.28
2023-04-25T07:16:35.902Z,5.52
2023-04-25T07:19:03.852Z,5.56
2023-04-25T07:21:33.186Z,5.70
2023-04-25T07:24:02.501Z,5.76
2023-04-25T07:26:30.363Z,5.76
2023-04-25T07:28:58.382Z,5.78
2023-04-25T07:31:26.919Z,5.83
2023-04-25T07:33:54.931Z,5.89
2023-04-25T07:36:22.810Z,5.95
2023-04-25T07:38:51.048Z,5.89
2023-04-25T07:41:20.474Z,6.00
2023-04-25T07:43:48.441Z,6.03
2023-04-25T07:46:16.401Z,6.07
2023-04-25T07:48:44.283Z,6.19
2023-04-25T07:51:12.277Z,6.25
2023-04-25T07:53:40.584Z,6.24
2023-04-25T07:56:09.182Z,6.41
2023-04-25T07:58:38.571Z,6.51
2023-04-25T08:01:06.590Z,6.57
2023-04-25T08:03:34.837Z,6.64
2023-04-25T08:06:05.768Z,6.69
2023-04-25T08:08:36.237Z,6.70
2023-04-25T08:11:04.092Z,6.72
2023-04-25T08:13:31.917Z,6.81
2023-04-25T08:16:01.299Z,6.95
2023-04-25T08:18:29.234Z,6.33
2023-04-25T08:20:57.049Z,7.13
2023-04-25T08:23:25.093Z,5.91
2023-04-25T08:25:53.197Z,7.34
2023-04-25T08:28:21.005Z,7.37
2023-04-25T08:30:49.181Z,7.41
2023-04-25T08:33:18.484Z,7.42
2023-04-25T08:35:46.950Z,7.43
2023-04-25T08:38:15.229Z,7.41
2023-04-25T08:40:45.402Z,7.23
2023-04-25T08:43:16.341Z,7.26
2023-04-25T08:45:44.575Z,7.37
2023-04-25T08:48:14.687Z,7.44
2023-04-25T08:50:49.030Z,7.47
2023-04-25T08:53:20.411Z,7.18
2023-04-25T08:55:49.032Z,7.02
2023-04-25T08:58:17.740Z,7.01
2023-04-25T09:00:45.802Z,7.08
2023-04-25T09:03:14.347Z,7.09
2023-04-25T09:05:47.107Z,6.91
2023-04-25T09:08:15.243Z,6.91
2023-04-25T09:10:43.253Z,6.99
2023-04-25T09:13:13.914Z,7.05
2023-04-25T09:15:53.168Z,7.05
2023-04-25T09:18:30.865Z,6.75
2023-04-25T09:21:13.159Z,7.12
2023-04-25T09:23:43.608Z,7.05
2023-04-25T09:26:11.617Z,7.16
2023-04-25T09:28:39.919Z,7.24
2023-04-25T09:31:07.833Z,7.54
2023-04-25T09:33:37.387Z,7.70
2023-04-25T09:36:09.296Z,7.80
2023-04-25T09:38:43.535Z,7.47
2023-04-25T09:41:11.822Z,7.29
2023-04-25T09:43:40.425Z,8.08
2023-04-25T09:46:12.276Z,8.14
2023-04-25T09:48:40.603Z,8.11
2023-04-25T09:51:12.134Z,8.12
2023-04-25T09:53:42.012Z,8.05
2023-04-25T09:56:11.611Z,8.14
2023-04-25T09:58:43.805Z,8.24
2023-04-25T10:01:13.986Z,8.56
2023-04-25T10:03:42.847Z,8.77
2023-04-25T10:06:16.880Z,8.56
2023-04-25T10:08:46.381Z,8.24
2023-04-25T10:11:16.864Z,8.37
2023-04-25T10:13:45.886Z,8.39
2023-04-25T10:16:13.941Z,8.31
2023-04-25T10:18:41.774Z,8.17
2023-04-25T10:21:09.839Z,7.28
2023-04-25T10:23:39.858Z,8.29
2023-04-25T10:26:13.857Z,8.52
2023-04-25T10:28:57.490Z,8.71
2023-04-25T10:31:25.646Z,8.66
2023-04-25T10:33:53.845Z,8.75
2023-04-25T10:36:23.557Z,8.63
2023-04-25T10:38:53.763Z,8.65
2023-04-25T10:41:23.730Z,8.65
2023-04-25T10:44:02.064Z,8.43
2023-04-25T10:46:32.029Z,8.45
2023-04-25T10:49:01.553Z,8.54
2023-04-25T10:51:39.959Z,8.65
2023-04-25T10:54:14.074Z,8.77
2023-04-25T10:56:45.562Z,8.81
2023-04-25T10:59:15.149Z,8.81
2023-04-25T11:01:45.269Z,8.83
2023-04-25T11:04:24.025Z,8.53
2023-04-25T11:07:08.056Z,8.20
2023-04-25T11:09:40.394Z,9.02
2023-04-25T11:12:12.760Z,8.86
2023-04-25T11:17:14.534Z,8.67
2023-04-25T11:19:42.661Z,8.59
2023-04-25T11:22:12.580Z,8.87
2023-04-25T11:24:41.963Z,9.11
2023-04-25T11:27:10.952Z,9.34
2023-04-25T11:29:38.844Z,9.50
2023-04-25T11:32:07.238Z,9.55
2023-04-25T11:34:35.891Z,9.34
2023-04-25T11:37:05.037Z,9.35
2023-04-25T11:39:33.021Z,9.36
2023-04-25T11:42:03.831Z,9.44
2023-04-25T11:44:36.366Z,9.53
2023-04-25T11:47:04.278Z,8.72
2023-04-25T11:49:33.390Z,9.25
2023-04-25T11:52:01.345Z,9.02
2023-04-25T11:54:29.275Z,9.05
2023-04-25T11:56:57.619Z,9.13
2023-04-25T11:59:28.162Z,9.08
2023-04-25T12:01:56.272Z,9.16
2023-04-25T12:04:25.438Z,9.19
2023-04-25T12:06:55.414Z,9.08
2023-04-25T12:09:30.368Z,9.07
2023-04-25T12:12:00.189Z,9.18
2023-04-25T12:14:30.968Z,9.34
2023-04-25T12:17:00.437Z,9.40
2023-04-25T12:19:33.990Z,9.52
2023-04-25T12:22:04.146Z,9.62
2023-04-25T12:24:39.093Z,9.50
2023-04-25T12:27:09.433Z,9.77
2023-04-25T12:29:49.103Z,9.85
2023-04-25T12:32:17.670Z,9.91
2023-04-25T12:34:46.153Z,10.02
2023-04-25T12:37:14.247Z,10.13
2023-04-25T12:39:42.215Z,10.10
2023-04-25T12:42:13.280Z,10.02
2023-04-25T12:44:42.943Z,10.00
2023-04-25T12:47:11.336Z,10.02
2023-04-25T12:49:39.520Z,9.85
2023-04-25T12:52:07.402Z,9.72
2023-04-25T12:54:35.193Z,9.69
2023-04-25T12:57:04.178Z,9.71
2023-04-25T12:59:32.244Z,9.66
2023-04-25T13:02:01.535Z,9.35
2023-04-25T13:04:29.608Z,9.45
2023-04-25T13:06:57.594Z,9.48
2023-04-25T13:09:25.592Z,9.51
2023-04-25T13:11:56.131Z,9.58
2023-04-25T13:14:26.172Z,9.72
2023-04-25T13:16:55.559Z,9.63
2023-04-25T13:19:24.863Z,10.16
2023-04-25T13:21:52.737Z,10.33
2023-04-25T13:24:20.778Z,10.53
2023-04-25T13:26:48.758Z,10.65
2023-04-25T13:29:16.593Z,10.79
2023-04-25T13:31:44.684Z,10.89
2023-04-25T13:34:13.574Z,11.00
2023-04-25T13:36:42.989Z,11.07
2023-04-25T13:39:12.562Z,11.14
2023-04-25T13:41:40.460Z,11.19
2023-04-25T13:44:08.459Z,11.20
2023-04-25T13:49:12.918Z,10.62
2023-04-25T13:51:43.616Z,11.03
2023-04-25T13:54:11.809Z,10.88
2023-04-25T13:56:39.663Z,10.84
2023-04-25T13:59:07.591Z,10.73
2023-04-25T14:01:36.744Z,10.77
2023-04-25T14:04:05.609Z,10.78
2023-04-25T14:06:34.112Z,10.77
2023-04-25T14:09:05.547Z,10.57
2023-04-25T14:11:33.467Z,10.70
2023-04-25T14:14:01.337Z,10.65
2023-04-25T14:16:29.587Z,10.65
2023-04-25T14:18:58.889Z,10.66
2023-04-25T14:21:28.029Z,10.33
2023-04-25T14:23:55.982Z,10.71
2023-04-25T14:26:25.447Z,10.61
2023-04-25T14:28:53.746Z,10.68
2023-04-25T14:31:22.241Z,10.77
2023-04-25T14:33:50.264Z,10.83
2023-04-25T14:36:18.504Z,10.68
2023-04-25T14:38:46.741Z,10.85
2023-04-25T14:41:14.796Z,10.68
2023-04-25T14:43:44.045Z,10.67
2023-04-25T14:46:13.150Z,10.47
2023-04-25T14:48:41.316Z,11.09
2023-04-25T14:51:09.738Z,11.30
2023-04-25T14:53:37.835Z,11.33
2023-04-25T14:56:06.198Z,11.20
2023-04-25T14:58:34.328Z,11.07
2023-04-25T15:01:03.790Z,11.02
2023-04-25T15:03:31.786Z,11.09
2023-04-25T15:05:59.898Z,10.98
2023-04-25T15:08:28.082Z,11.16
2023-04-25T15:10:55.935Z,11.12
2023-04-25T15:13:23.936Z,11.41
2023-04-25T15:18:48.530Z,12.38
2023-04-25T15:21:16.496Z,13.89
2023-04-25T15:23:44.380Z,15.23
2023-04-25T15:26:12.922Z,15.91
2023-04-25T15:28:40.843Z,16.18
2023-04-25T15:31:09.204Z,15.98
2023-04-25T15:33:37.188Z,15.50
2023-04-25T15:36:07.510Z,14.91
2023-04-25T15:38:35.318Z,14.57
2023-04-25T15:41:04.796Z,13.86
2023-04-25T15:43:35.758Z,13.17
2023-04-25T15:46:03.633Z,12.81
2023-04-25T15:48:32.641Z,13.12
2023-04-25T15:51:01.063Z,13.49
2023-04-25T15:53:30.300Z,13.62
2023-04-25T15:55:58.255Z,13.26
2023-04-25T15:58:27.471Z,11.88
2023-04-25T16:00:56.720Z,11.97
2023-04-25T16:03:24.834Z,11.54
2023-04-25T16:05:52.906Z,11.39
2023-04-25T16:08:20.831Z,11.24
2023-04-25T16:10:50.316Z,10.97
2023-04-25T16:13:18.221Z,10.72
2023-04-25T16:15:46.086Z,10.48
2023-04-25T16:18:14.034Z,10.21
2023-04-25T16:20:42.156Z,9.88
2023-04-25T16:23:10.638Z,9.74
2023-04-25T16:25:38.575Z,9.60
2023-04-25T16:28:07.953Z,9.48
2023-04-25T16:30:36.039Z,9.37
2023-04-25T16:33:04.005Z,9.37
2023-04-25T16:35:32.563Z,9.37
2023-04-25T16:38:01.098Z,9.30
2023-04-25T16:40:29.138Z,9.26
2023-04-25T16:42:57.160Z,9.21
2023-04-25T16:45:26.858Z,9.15
2023-04-25T16:47:54.843Z,9.09
2023-04-25T16:50:22.832Z,9.08
2023-04-25T16:52:51.333Z,9.08
2023-04-25T16:55:19.639Z,9.03
2023-04-25T16:57:47.600Z,8.95
2023-04-25T17:00:16.854Z,8.97
2023-04-25T17:02:46.235Z,8.89
2023-04-25T17:05:14.260Z,8.87
2023-04-25T17:07:42.111Z,8.86
2023-04-25T17:10:11.133Z,8.84
2023-04-25T17:12:38.970Z,8.79
2023-04-25T17:15:08.494Z,8.77
2023-04-25T17:17:36.545Z,8.76
2023-04-25T17:20:07.346Z,8.72
2023-04-25T17:22:35.756Z,8.67
2023-04-25T17:25:03.953Z,8.64
2023-04-25T17:27:32.210Z,8.62
2023-04-25T17:30:00.256Z,8.60
2023-04-25T17:32:28.634Z,8.60
2023-04-25T17:34:56.841Z,8.60
2023-04-25T17:37:28.534Z,8.62
2023-04-25T17:39:56.419Z,8.60
2023-04-25T17:42:24.780Z,8.57
2023-04-25T17:44:54.817Z,8.55
2023-04-25T17:47:22.967Z,8.54
2023-04-25T17:49:51.490Z,8.53
2023-04-25T17:52:19.391Z,8.52
2023-04-25T17:54:49.582Z,8.51
2023-04-25T17:57:17.726Z,8.15
2023-04-25T17:59:45.864Z,8.50
2023-04-25T18:02:13.737Z,8.34
2023-04-25T18:04:41.670Z,8.42
2023-04-25T18:07:09.732Z,8.38
2023-04-25T18:09:37.568Z,8.37
2023-04-25T18:12:08.189Z,8.31
2023-04-25T18:14:36.805Z,8.35
2023-04-25T18:17:07.351Z,8.22
2023-04-25T18:19:35.352Z,8.30
2023-04-25T18:22:03.435Z,8.23
2023-04-25T18:24:32.193Z,8.26
2023-04-25T18:27:01.397Z,8.25
2023-04-25T18:29:33.963Z,8.22
2023-04-25T18:32:04.443Z,8.17
2023-04-25T18:34:32.964Z,8.13
2023-04-25T18:37:00.871Z,8.09
2023-04-25T18:39:28.834Z,8.07
2023-04-25T18:42:03.201Z,8.04
2023-04-25T18:44:40.188Z,7.98
2023-04-25T18:47:09.193Z,7.94
2023-04-25T18:49:37.537Z,7.91
2023-04-25T18:52:05.603Z,7.92
2023-04-25T18:54:33.461Z,7.81
2023-04-25T18:57:01.461Z,7.91
2023-04-25T18:59:29.419Z,7.90
2023-04-25T19:02:00.644Z,7.89
2023-04-25T19:04:29.213Z,7.86
2023-04-25T19:06:57.259Z,7.84
2023-04-25T19:09:25.720Z,7.86
2023-04-25T19:11:54.223Z,7.83
2023-04-25T19:14:22.388Z,7.80
2023-04-25T19:16:50.315Z,7.78
2023-04-25T19:19:19.692Z,7.74
2023-04-25T19:21:47.655Z,7.72
2023-04-25T19:24:15.553Z,7.69
2023-04-25T19:26:43.530Z,7.67
2023-04-25T19:29:14.499Z,7.63
2023-04-25T19:31:44.067Z,7.60
2023-04-25T19:34:13.066Z,7.28
2023-04-25T19:36:44.161Z,7.54
2023-04-25T19:39:12.176Z,7.35
2023-04-25T19:41:40.321Z,7.45
2023-04-25T19:44:09.465Z,7.13
2023-04-25T19:46:38.344Z,7.05
2023-04-25T19:49:07.871Z,7.31
2023-04-25T19:51:37.269Z,7.27
2023-04-25T19:54:06.982Z,7.09
2023-04-25T19:56:35.075Z,7.08
2023-04-25T19:59:03.007Z,7.15
2023-04-25T20:01:31.050Z,7.06
2023-04-25T20:03:58.988Z,7.08
2023-04-25T20:06:27.395Z,7.06
2023-04-25T20:08:55.659Z,7.09
2023-04-25T20:11:28.689Z,7.07
2023-04-25T20:13:57.080Z,7.05
2023-04-25T20:16:25.118Z,6.69
2023-04-25T20:18:53.842Z,7.06
2023-04-25T20:21:23.575Z,7.02
2023-04-25T20:23:51.395Z,6.99
2023-04-25T20:28:48.852Z,7.02
2023-04-25T20:31:16.967Z,6.84
2023-04-25T20:33:45.014Z,6.23
2023-04-25T20:36:15.213Z,6.96
2023-04-25T20:38:43.137Z,6.61
2023-04-25T20:41:11.683Z,6.93
2023-04-25T20:43:40.374Z,6.92
2023-04-25T20:46:10.401Z,6.93
2023-04-25T20:48:38.422Z,6.94
2023-04-25T20:51:07.292Z,6.70
2023-04-25T20:53:35.144Z,6.87
2023-04-25T20:56:04.538Z,6.83
2023-04-25T20:58:32.398Z,6.77
2023-04-25T21:01:01.400Z,6.68
2023-04-25T21:03:31.412Z,6.65
2023-04-25T21:05:59.546Z,6.60
2023-04-25T21:08:27.424Z,5.70
2023-04-25T21:10:55.379Z,6.62
2023-04-25T21:13:23.209Z,6.62
2023-04-25T21:15:51.710Z,6.42
2023-04-25T21:18:19.825Z,6.56
2023-04-25T21:20:49.037Z,6.47
2023-04-25T21:23:16.990Z,5.71
2023-04-25T21:25:45.195Z,6.51
2023-04-25T21:28:13.179Z,6.45
2023-04-25T21:30:42.560Z,6.46
2023-04-25T21:33:10.603Z,6.43
2023-04-25T21:35:38.764Z,6.41
2023-04-25T21:38:08.179Z,5.46
2023-04-25T21:40:36.728Z,6.35
2023-04-25T21:43:04.623Z,6.34
2023-04-25T21:45:32.555Z,6.35
2023-04-25T21:48:00.672Z,6.37
2023-04-25T21:50:28.943Z,6.35
2023-04-25T21:52:58.933Z,6.40
2023-04-25T21:55:28.984Z,6.42
2023-04-25T21:57:56.788Z,6.44
2023-04-25T22:00:27.588Z,6.47
2023-04-25T22:02:56.708Z,6.26
2023-04-25T22:05:26.698Z,6.50
2023-04-25T22:07:57.053Z,6.50
2023-04-25T22:10:26.342Z,6.43
2023-04-25T22:12:56.067Z,6.46
2023-04-25T22:15:24.495Z,6.43
2023-04-25T22:17:55.499Z,6.42
2023-04-25T22:20:26.318Z,6.34
2023-04-25T22:22:55.745Z,6.32
2023-04-25T22:25:24.050Z,6.42
2023-04-25T22:27:52.303Z,6.44
2023-04-25T22:30:21.929Z,6.47
2023-04-25T22:32:49.910Z,6.46
2023-04-25T22:35:17.802Z,6.41
2023-04-25T22:37:45.974Z,6.30
2023-04-25T22:40:14.428Z,6.35
2023-04-25T22:42:43.591Z,6.32
2023-04-25T22:45:12.606Z,6.31
2023-04-25T22:47:41.976Z,6.33
2023-04-25T22:50:13.595Z,6.32
2023-04-25T22:52:42.692Z,6.32
2023-04-25T22:55:12.338Z,6.27
2023-04-25T22:57:40.507Z,6.23
2023-04-25T23:00:16.551Z,6.10
2023-04-25T23:02:47.505Z,6.08
2023-04-25T23:05:16.428Z,6.03
2023-04-25T23:07:45.146Z,5.98
2023-04-25T23:10:14.257Z,5.94
2023-04-25T23:12:42.844Z,5.91
2023-04-25T23:15:12.602Z,5.88
2023-04-25T23:17:40.888Z,5.75
2023-04-25T23:20:12.161Z,5.83
2023-04-25T23:22:40.636Z,5.84
2023-04-25T23:25:10.201Z,5.86
2023-04-25T23:27:38.538Z,5.76
2023-04-25T23:30:09.016Z,5.90
2023-04-25T23:32:37.387Z,5.89
2023-04-25T23:35:06.192Z,5.64
2023-04-25T23:37:37.141Z,5.67
2023-04-25T23:40:08.582Z,5.86
2023-04-25T23:42:36.798Z,5.88
2023-04-25T23:45:05.394Z,5.91
2023-04-25T23:47:33.527Z,5.85
2023-04-25T23:50:01.693Z,5.85
2023-04-25T23:52:29.678Z,5.83
2023-04-25T23:54:59.106Z,5.77
2023-04-25T23:57:26.969Z,5.69
2023-04-25T23:59:55.134Z,5.60
